createdAt,value
2023-10-15T00:01:43.911Z,1.88
2023-10-15T00:03:48.569Z,2.45
2023-10-15T00:05:51.505Z,1.80
2023-10-15T00:07:54.533Z,2.10
2023-10-15T00:09:57.183Z,1.80
2023-10-15T00:12:00.117Z,2.00
2023-10-15T00:14:06.837Z,2.42
2023-10-15T00:16:09.489Z,2.08
2023-10-15T00:18:12.323Z,2.22
2023-10-15T00:20:19.790Z,2.33
2023-10-15T00:22:23.246Z,2.25
2023-10-15T00:24:28.147Z,2.30
2023-10-15T00:26:31.611Z,1.80
2023-10-15T00:28:34.935Z,2.00
2023-10-15T00:30:38.958Z,2.58
2023-10-15T00:32:47.312Z,2.10
2023-10-15T00:34:51.013Z,2.15
2023-10-15T00:36:57.467Z,2.28
2023-10-15T00:39:00.150Z,1.88
2023-10-15T00:41:09.125Z,2.10
2023-10-15T00:43:16.250Z,2.15
2023-10-15T00:45:21.227Z,1.95
2023-10-15T00:47:24.620Z,2.25
2023-10-15T00:49:27.886Z,1.70
2023-10-15T00:51:30.549Z,2.00
2023-10-15T00:53:34.527Z,2.00
2023-10-15T00:55:43.879Z,1.90
2023-10-15T00:57:57.558Z,2.28
2023-10-15T01:00:01.139Z,2.10
2023-10-15T01:02:05.338Z,1.73
2023-10-15T01:04:09.673Z,2.53
2023-10-15T01:06:15.832Z,1.80
2023-10-15T01:08:18.744Z,2.00
2023-10-15T01:10:34.124Z,2.65
2023-10-15T01:12:36.968Z,2.70
2023-10-15T01:14:45.835Z,2.08
2023-10-15T01:16:48.727Z,2.83
2023-10-15T01:19:18.893Z,2.00
2023-10-15T01:21:21.649Z,2.25
2023-10-15T01:23:33.335Z,1.67
2023-10-15T01:25:47.423Z,1.90
2023-10-15T01:27:50.365Z,1.90
2023-10-15T01:29:53.244Z,1.63
2023-10-15T01:32:09.195Z,2.20
2023-10-15T01:34:14.420Z,2.20
2023-10-15T01:36:29.443Z,2.20
2023-10-15T01:38:32.505Z,2.17
2023-10-15T01:40:38.864Z,1.80
2023-10-15T01:42:43.050Z,2.08
2023-10-15T01:44:49.799Z,2.30
2023-10-15T01:47:05.243Z,2.03
2023-10-15T01:49:09.325Z,2.30
2023-10-15T01:51:13.828Z,2.38
2023-10-15T01:53:18.042Z,2.05
2023-10-15T01:55:20.755Z,2.22
2023-10-15T01:57:24.673Z,1.90
2023-10-15T01:59:28.682Z,1.98
2023-10-15T02:01:38.881Z,1.90
2023-10-15T02:03:46.467Z,2.03
2023-10-15T02:05:49.538Z,2.38
2023-10-15T02:07:52.936Z,2.05
2023-10-15T02:09:56.359Z,1.98
2023-10-15T02:11:58.981Z,2.10
2023-10-15T02:14:02.095Z,1.98
2023-10-15T02:16:11.286Z,1.98
2023-10-15T02:18:19.344Z,1.52
2023-10-15T02:20:43.625Z,1.67
2023-10-15T02:22:48.678Z,2.00
2023-10-15T02:24:53.768Z,1.90
2023-10-15T02:26:56.804Z,1.65
2023-10-15T02:29:08.584Z,1.55
2023-10-15T02:31:12.054Z,2.40
2023-10-15T02:33:18.508Z,1.98
2023-10-15T02:35:25.637Z,1.75
2023-10-15T02:37:29.662Z,1.83
2023-10-15T02:39:39.963Z,1.70
2023-10-15T02:41:43.372Z,1.77
2023-10-15T02:43:58.521Z,2.13
2023-10-15T02:46:02.025Z,1.40
2023-10-15T02:48:12.296Z,1.80
2023-10-15T02:50:19.878Z,2.30
2023-10-15T02:52:25.010Z,2.00
2023-10-15T02:54:38.180Z,1.58
2023-10-15T02:56:42.756Z,1.58
2023-10-15T02:58:47.076Z,1.73
2023-10-15T03:00:53.573Z,2.13
2023-10-15T03:02:57.324Z,2.35
2023-10-15T03:05:07.950Z,1.58
2023-10-15T03:07:20.995Z,1.27
2023-10-15T03:09:27.714Z,1.63
2023-10-15T03:11:34.769Z,1.88
2023-10-15T03:13:46.458Z,1.40
2023-10-15T03:15:51.671Z,1.38
2023-10-15T03:17:54.564Z,1.45
2023-10-15T03:19:57.855Z,1.95
2023-10-15T03:22:02.117Z,1.92
2023-10-15T03:24:06.516Z,1.77
2023-10-15T03:26:11.985Z,2.00
2023-10-15T03:28:15.082Z,1.60
2023-10-15T03:30:23.796Z,1.67
2023-10-15T03:32:33.663Z,1.50
2023-10-15T03:34:37.570Z,1.50
2023-10-15T03:36:49.036Z,1.60
2023-10-15T03:38:52.620Z,1.85
2023-10-15T03:41:12.809Z,1.58
2023-10-15T03:43:22.443Z,1.60
2023-10-15T03:45:28.672Z,3.28
2023-10-15T03:47:31.452Z,1.73
2023-10-15T03:49:34.482Z,1.75
2023-10-15T03:51:43.128Z,2.10
2023-10-15T03:53:46.260Z,2.42
2023-10-15T03:55:53.034Z,1.98
2023-10-15T03:57:56.183Z,1.45
2023-10-15T03:59:59.606Z,2.13
2023-10-15T04:02:03.849Z,1.75
2023-10-15T04:04:07.085Z,2.10
2023-10-15T04:06:11.546Z,1.80
2023-10-15T04:08:20.609Z,2.03
2023-10-15T04:10:36.130Z,2.05
2023-10-15T04:12:42.404Z,2.00
2023-10-15T04:14:45.386Z,1.70
2023-10-15T04:16:48.997Z,2.08
2023-10-15T04:18:52.366Z,1.80
2023-10-15T04:20:56.946Z,1.88
2023-10-15T04:23:00.297Z,2.08
2023-10-15T04:25:07.966Z,1.20
2023-10-15T04:27:26.185Z,1.48
2023-10-15T04:29:32.732Z,1.52
2023-10-15T04:31:35.585Z,1.52
2023-10-15T04:33:38.792Z,1.30
2023-10-15T04:35:45.617Z,1.30
2023-10-15T04:37:53.801Z,2.13
2023-10-15T04:40:10.805Z,2.53
2023-10-15T04:42:23.242Z,1.48
2023-10-15T04:44:33.053Z,1.60
2023-10-15T04:46:42.771Z,1.85
2023-10-15T04:48:48.466Z,1.45
2023-10-15T04:50:51.468Z,2.47
2023-10-15T04:52:54.453Z,2.05
2023-10-15T04:54:57.547Z,1.77
2023-10-15T04:57:00.348Z,2.20
2023-10-15T04:59:03.100Z,1.88
2023-10-15T05:01:06.526Z,1.60
2023-10-15T05:03:11.119Z,1.50
2023-10-15T05:05:15.049Z,1.60
2023-10-15T05:07:18.104Z,1.85
2023-10-15T05:09:24.078Z,1.50
2023-10-15T05:11:26.877Z,1.70
2023-10-15T05:13:29.729Z,1.73
2023-10-15T05:15:34.445Z,1.50
2023-10-15T05:17:37.710Z,1.77
2023-10-15T05:19:41.631Z,1.65
2023-10-15T05:21:46.295Z,1.70
2023-10-15T05:23:48.857Z,1.52
2023-10-15T05:25:51.730Z,1.65
2023-10-15T05:27:54.690Z,1.95
2023-10-15T05:29:58.809Z,1.55
2023-10-15T05:32:01.698Z,1.80
2023-10-15T05:34:04.579Z,1.58
2023-10-15T05:36:08.105Z,1.85
2023-10-15T05:38:11.831Z,1.98
2023-10-15T05:40:14.736Z,2.17
2023-10-15T05:42:18.108Z,1.52
2023-10-15T05:44:20.920Z,1.45
2023-10-15T05:46:23.977Z,1.90
2023-10-15T05:48:27.629Z,2.10
2023-10-15T05:50:31.310Z,1.77
2023-10-15T05:52:34.879Z,1.90
2023-10-15T05:54:37.596Z,1.52
2023-10-15T05:56:41.134Z,1.65
2023-10-15T05:58:44.137Z,1.50
2023-10-15T06:00:47.364Z,1.77
2023-10-15T06:02:52.413Z,1.50
2023-10-15T06:04:55.291Z,1.60
2023-10-15T06:06:59.730Z,2.20
2023-10-15T06:09:02.433Z,2.15
2023-10-15T06:11:04.885Z,2.65
2023-10-15T06:13:07.633Z,3.22
2023-10-15T06:15:16.420Z,2.80
2023-10-15T06:17:22.651Z,3.25
2023-10-15T06:19:26.793Z,3.30
2023-10-15T06:21:29.763Z,2.75
2023-10-15T06:23:33.179Z,3.03
2023-10-15T06:25:37.104Z,2.78
2023-10-15T06:27:43.267Z,3.33
2023-10-15T06:29:46.320Z,2.65
2023-10-15T06:31:49.525Z,2.33
2023-10-15T06:33:52.499Z,2.22
2023-10-15T06:35:56.994Z,1.90
2023-10-15T06:38:01.612Z,2.13
2023-10-15T06:40:18.883Z,2.00
2023-10-15T06:42:24.700Z,2.60
2023-10-15T06:44:27.479Z,2.22
2023-10-15T06:46:31.654Z,1.48
2023-10-15T06:48:39.819Z,1.50
2023-10-15T06:50:43.505Z,1.60
2023-10-15T06:52:46.598Z,1.88
2023-10-15T06:54:49.952Z,1.70
2023-10-15T06:56:52.667Z,1.50
2023-10-15T06:58:56.782Z,1.85
2023-10-15T07:01:00.794Z,1.90
2023-10-15T07:03:03.896Z,2.35
2023-10-15T07:05:07.625Z,1.83
2023-10-15T07:07:10.899Z,1.60
2023-10-15T07:09:15.448Z,1.90
2023-10-15T07:11:18.096Z,1.73
2023-10-15T07:13:21.715Z,2.20
2023-10-15T07:15:25.845Z,2.20
2023-10-15T07:17:29.620Z,1.70
2023-10-15T07:19:32.854Z,1.90
2023-10-15T07:21:35.527Z,1.95
2023-10-15T07:23:38.288Z,2.10
2023-10-15T07:25:40.939Z,1.75
2023-10-15T07:27:47.436Z,1.90
2023-10-15T07:29:50.143Z,2.17
2023-10-15T07:31:53.020Z,1.90
2023-10-15T07:33:55.879Z,2.58
2023-10-15T07:36:00.826Z,1.98
2023-10-15T07:38:04.620Z,2.30
2023-10-15T07:40:16.967Z,1.73
2023-10-15T07:42:20.457Z,2.30
2023-10-15T07:44:23.310Z,1.80
2023-10-15T07:46:26.710Z,2.58
2023-10-15T07:48:29.589Z,1.88
2023-10-15T07:50:36.099Z,2.40
2023-10-15T07:52:41.866Z,2.10
2023-10-15T07:54:45.259Z,2.22
2023-10-15T07:56:48.677Z,2.33
2023-10-15T07:58:52.734Z,3.25
2023-10-15T08:01:09.164Z,2.67
2023-10-15T08:03:14.739Z,1.92
2023-10-15T08:05:17.999Z,2.70
2023-10-15T08:07:22.247Z,2.58
2023-10-15T08:09:25.453Z,2.30
2023-10-15T08:11:28.527Z,2.30
2023-10-15T08:13:31.789Z,2.45
2023-10-15T08:15:35.498Z,2.75
2023-10-15T08:17:39.208Z,2.60
2023-10-15T08:19:42.399Z,2.72
2023-10-15T08:21:45.634Z,2.58
2023-10-15T08:23:48.520Z,3.30
2023-10-15T08:25:52.790Z,2.10
2023-10-15T08:27:55.800Z,2.20
2023-10-15T08:29:59.077Z,2.10
2023-10-15T08:32:04.135Z,2.60
2023-10-15T08:34:06.886Z,2.00
2023-10-15T08:36:10.356Z,1.80
2023-10-15T08:38:14.262Z,2.05
2023-10-15T08:40:19.412Z,1.77
2023-10-15T08:42:32.504Z,1.90
2023-10-15T08:44:37.677Z,1.77
2023-10-15T08:46:43.346Z,1.85
2023-10-15T08:48:49.795Z,2.88
2023-10-15T08:50:56.495Z,1.45
2023-10-15T08:53:01.914Z,1.27
2023-10-15T08:55:08.542Z,1.30
2023-10-15T08:57:11.572Z,1.55
2023-10-15T08:59:15.559Z,1.50
2023-10-15T09:01:19.144Z,1.27
2023-10-15T09:03:25.438Z,1.25
2023-10-15T09:05:42.317Z,1.73
2023-10-15T09:07:45.859Z,1.55
2023-10-15T09:09:51.117Z,1.55
2023-10-15T09:11:56.155Z,1.13
2023-10-15T09:14:00.289Z,2.20
2023-10-15T09:16:03.564Z,1.73
2023-10-15T09:18:07.050Z,1.75
2023-10-15T09:20:12.024Z,1.50
2023-10-15T09:22:17.741Z,2.13
2023-10-15T09:24:22.453Z,1.40
2023-10-15T09:26:25.664Z,1.50
2023-10-15T09:28:30.157Z,1.70
2023-10-15T09:30:33.940Z,1.30
2023-10-15T09:32:36.989Z,1.42
2023-10-15T09:34:40.668Z,1.10
2023-10-15T09:36:44.083Z,1.17
2023-10-15T09:38:47.556Z,1.75
2023-10-15T09:40:50.763Z,1.67
2023-10-15T09:42:56.729Z,1.98
2023-10-15T09:45:04.504Z,1.42
2023-10-15T09:47:09.885Z,1.10
2023-10-15T09:49:15.090Z,1.38
2023-10-15T09:51:19.139Z,1.92
2023-10-15T09:53:24.169Z,1.50
2023-10-15T09:55:33.997Z,1.50
2023-10-15T09:57:37.212Z,1.98
2023-10-15T09:59:39.976Z,1.40
2023-10-15T10:01:48.536Z,1.80
2023-10-15T10:04:07.013Z,1.38
2023-10-15T10:06:33.572Z,1.75
2023-10-15T10:09:05.587Z,1.58
2023-10-15T10:11:18.191Z,1.60
2023-10-15T10:13:35.919Z,1.58
2023-10-15T10:15:56.671Z,1.35
2023-10-15T10:18:01.175Z,1.85
2023-10-15T10:20:23.970Z,1.50
2023-10-15T10:22:31.250Z,1.95
2023-10-15T10:24:47.294Z,1.80
2023-10-15T10:26:55.755Z,1.85
2023-10-15T10:29:01.488Z,1.42
2023-10-15T10:31:06.810Z,1.80
2023-10-15T10:33:10.936Z,1.85
2023-10-15T10:35:22.051Z,1.65
2023-10-15T10:37:25.253Z,1.95
2023-10-15T10:39:45.448Z,1.75
2023-10-15T10:41:52.886Z,1.38
2023-10-15T10:44:10.294Z,1.42
2023-10-15T10:46:24.648Z,2.00
2023-10-15T10:48:29.571Z,1.20
2023-10-15T10:50:47.023Z,1.80
2023-10-15T10:53:13.591Z,1.77
2023-10-15T10:55:35.402Z,1.90
2023-10-15T10:57:44.386Z,1.20
2023-10-15T10:59:47.854Z,1.25
2023-10-15T11:01:52.309Z,1.50
2023-10-15T11:03:55.068Z,1.38
2023-10-15T11:05:57.943Z,1.83
2023-10-15T11:08:01.047Z,1.20
2023-10-15T11:10:07.571Z,1.30
2023-10-15T11:12:11.209Z,1.40
2023-10-15T11:14:15.037Z,1.95
2023-10-15T11:16:18.590Z,1.85
2023-10-15T11:18:24.876Z,1.30
2023-10-15T11:20:29.127Z,1.60
2023-10-15T11:22:32.201Z,2.08
2023-10-15T11:24:35.246Z,1.65
2023-10-15T11:26:43.384Z,1.70
2023-10-15T11:28:47.248Z,1.45
2023-10-15T11:30:51.000Z,1.67
2023-10-15T11:32:53.681Z,1.40
2023-10-15T11:34:56.682Z,1.60
2023-10-15T11:36:59.494Z,1.60
2023-10-15T11:39:09.927Z,1.48
2023-10-15T11:41:14.597Z,1.70
2023-10-15T11:43:23.636Z,1.40
2023-10-15T11:45:33.050Z,1.50
2023-10-15T11:47:37.079Z,1.38
2023-10-15T11:49:40.742Z,1.38
2023-10-15T11:51:43.838Z,1.50
2023-10-15T11:53:48.358Z,1.42
2023-10-15T11:55:56.259Z,1.40
2023-10-15T11:58:12.230Z,1.13
2023-10-15T12:00:24.761Z,1.30
2023-10-15T12:02:29.773Z,1.23
2023-10-15T12:04:34.431Z,1.35
2023-10-15T12:06:37.396Z,1.88
2023-10-15T12:08:40.649Z,1.77
2023-10-15T12:10:47.102Z,1.33
2023-10-15T12:12:51.494Z,1.40
2023-10-15T12:14:54.016Z,1.50
2023-10-15T12:16:56.982Z,1.52
2023-10-15T12:19:00.056Z,2.00
2023-10-15T12:21:02.982Z,1.30
2023-10-15T12:23:05.905Z,1.40
2023-10-15T12:25:09.208Z,1.25
2023-10-15T12:27:12.771Z,1.20
2023-10-15T12:29:28.188Z,0.95
2023-10-15T12:31:35.105Z,1.00
2023-10-15T12:33:40.547Z,1.08
2023-10-15T12:35:46.184Z,1.50
2023-10-15T12:37:51.481Z,1.30
2023-10-15T12:39:54.570Z,1.30
2023-10-15T12:41:58.286Z,1.45
2023-10-15T12:44:01.845Z,0.95
2023-10-15T12:46:05.610Z,1.60
2023-10-15T12:48:10.626Z,1.35
2023-10-15T12:50:17.049Z,1.58
2023-10-15T12:52:20.689Z,1.40
2023-10-15T12:54:23.971Z,1.20
2023-10-15T12:56:27.145Z,1.50
2023-10-15T12:58:30.011Z,1.40
2023-10-15T13:00:34.538Z,1.65
2023-10-15T13:02:38.311Z,1.77
2023-10-15T13:04:41.505Z,1.05
2023-10-15T13:06:45.077Z,1.65
2023-10-15T13:08:47.867Z,1.50
2023-10-15T13:10:51.616Z,1.23
2023-10-15T13:12:56.352Z,1.80
2023-10-15T13:15:00.088Z,1.38
2023-10-15T13:17:03.246Z,1.10
2023-10-15T13:19:06.257Z,1.10
2023-10-15T13:21:12.376Z,1.30
2023-10-15T13:23:15.360Z,1.27
2023-10-15T13:25:18.837Z,1.40
2023-10-15T13:27:22.156Z,1.50
2023-10-15T13:29:25.486Z,1.17
2023-10-15T13:31:28.967Z,1.10
2023-10-15T13:33:32.670Z,1.30
2023-10-15T13:35:36.923Z,1.17
2023-10-15T13:37:41.525Z,1.00
2023-10-15T13:39:44.305Z,1.55
2023-10-15T13:41:48.914Z,1.65
2023-10-15T13:43:52.242Z,1.60
2023-10-15T13:45:54.953Z,1.60
2023-10-15T13:47:57.950Z,1.73
2023-10-15T13:50:01.158Z,1.23
2023-10-15T13:52:05.744Z,1.50
2023-10-15T13:54:08.808Z,1.73
2023-10-15T13:56:12.088Z,1.60
2023-10-15T13:58:14.900Z,1.30
2023-10-15T14:00:18.379Z,1.30
2023-10-15T14:02:21.329Z,1.17
2023-10-15T14:04:24.723Z,1.20
2023-10-15T14:06:29.211Z,1.42
2023-10-15T14:08:31.880Z,2.15
2023-10-15T14:10:34.533Z,2.70
2023-10-15T14:12:37.427Z,1.65
2023-10-15T14:14:40.971Z,1.80
2023-10-15T14:16:44.053Z,1.20
2023-10-15T14:18:49.244Z,1.60
2023-10-15T14:20:52.565Z,2.55
2023-10-15T14:22:59.309Z,1.40
2023-10-15T14:25:02.821Z,1.75
2023-10-15T14:27:06.609Z,1.38
2023-10-15T14:29:09.294Z,2.25
2023-10-15T14:31:13.551Z,1.90
2023-10-15T14:33:16.530Z,3.00
2023-10-15T14:35:20.511Z,2.10
2023-10-15T14:37:23.653Z,4.07
2023-10-15T14:39:27.730Z,6.82
2023-10-15T14:41:31.272Z,6.00
2023-10-15T14:43:34.691Z,2.88
2023-10-15T14:45:39.036Z,1.30
2023-10-15T14:47:42.928Z,1.55
2023-10-15T14:49:47.925Z,1.83
2023-10-15T14:51:51.115Z,2.22
2023-10-15T14:53:54.713Z,2.97
2023-10-15T14:55:57.872Z,2.13
2023-10-15T14:58:00.563Z,2.25
2023-10-15T15:00:06.193Z,2.05
2023-10-15T15:02:12.329Z,2.33
2023-10-15T15:04:17.925Z,2.47
2023-10-15T15:06:21.034Z,1.83
2023-10-15T15:08:24.189Z,1.60
2023-10-15T15:10:27.308Z,1.77
2023-10-15T15:12:30.150Z,1.40
2023-10-15T15:14:33.258Z,1.30
2023-10-15T15:16:36.359Z,1.08
2023-10-15T15:18:39.184Z,1.35
2023-10-15T15:20:42.281Z,1.70
2023-10-15T15:22:45.104Z,1.15
2023-10-15T15:24:48.113Z,1.20
2023-10-15T15:26:51.225Z,1.20
2023-10-15T15:28:54.398Z,1.40
2023-10-15T15:30:57.533Z,1.33
2023-10-15T15:33:02.482Z,1.30
2023-10-15T15:35:09.250Z,1.58
2023-10-15T15:39:14.627Z,1.75
2023-10-15T15:41:17.635Z,1.88
2023-10-15T15:43:22.791Z,1.83
2023-10-15T15:45:26.469Z,2.63
2023-10-15T15:47:29.588Z,2.25
2023-10-15T15:49:32.781Z,1.85
2023-10-15T15:51:35.728Z,1.80
2023-10-15T15:53:38.427Z,1.55
2023-10-15T15:55:44.817Z,1.27
2023-10-15T15:57:48.067Z,1.30
2023-10-15T15:59:52.901Z,1.52
2023-10-15T16:01:56.225Z,1.27
2023-10-15T16:04:03.074Z,1.52
2023-10-15T16:08:10.701Z,1.30
2023-10-15T16:10:13.758Z,1.52
2023-10-15T16:12:17.107Z,1.42
2023-10-15T16:14:20.360Z,1.13
2023-10-15T16:16:23.577Z,1.75
2023-10-15T16:18:28.612Z,1.40
2023-10-15T16:20:33.976Z,1.33
2023-10-15T16:22:38.224Z,1.30
2023-10-15T16:24:46.869Z,1.42
2023-10-15T16:26:52.682Z,1.45
2023-10-15T16:28:56.154Z,1.33
2023-10-15T16:30:59.836Z,1.50
2023-10-15T16:33:04.316Z,1.35
2023-10-15T16:35:18.156Z,1.55
2023-10-15T16:37:21.282Z,1.60
2023-10-15T16:39:24.106Z,2.80
2023-10-15T16:41:27.342Z,1.70
2023-10-15T16:43:34.478Z,1.45
2023-10-15T16:45:42.622Z,1.20
2023-10-15T16:47:46.037Z,1.50
2023-10-15T16:49:49.284Z,1.90
2023-10-15T16:51:53.230Z,1.65
2023-10-15T16:53:56.124Z,1.80
2023-10-15T16:55:59.803Z,2.03
2023-10-15T16:58:03.999Z,1.92
2023-10-15T17:00:10.897Z,2.80
2023-10-15T17:02:13.703Z,2.70
2023-10-15T17:04:17.538Z,3.10
2023-10-15T17:06:20.963Z,2.53
2023-10-15T17:08:23.937Z,2.70
2023-10-15T17:10:27.408Z,2.50
2023-10-15T17:12:30.489Z,2.72
2023-10-15T17:14:33.761Z,2.72
2023-10-15T17:16:36.941Z,2.85
2023-10-15T17:18:40.346Z,2.50
2023-10-15T17:20:44.373Z,2.55
2023-10-15T17:22:49.565Z,2.33
2023-10-15T17:24:53.007Z,3.40
2023-10-15T17:26:59.816Z,3.22
2023-10-15T17:29:05.910Z,3.08
2023-10-15T17:31:09.070Z,3.22
2023-10-15T17:33:13.455Z,3.63
2023-10-15T17:35:17.553Z,3.83
2023-10-15T17:37:21.738Z,3.85
2023-10-15T17:39:30.005Z,4.30
2023-10-15T17:41:33.460Z,3.03
2023-10-15T17:43:36.933Z,3.60
2023-10-15T17:45:39.869Z,3.28
2023-10-15T17:47:42.866Z,3.22
2023-10-15T17:49:46.437Z,2.90
2023-10-15T17:51:50.471Z,2.90
2023-10-15T17:53:53.662Z,2.72
2023-10-15T17:55:59.701Z,2.85
2023-10-15T17:58:03.872Z,2.28
2023-10-15T18:00:13.476Z,2.65
2023-10-15T18:02:16.439Z,2.15
2023-10-15T18:04:19.730Z,2.45
2023-10-15T18:06:24.359Z,2.20
2023-10-15T18:08:27.469Z,2.47
2023-10-15T18:10:30.420Z,2.55
2023-10-15T18:12:33.644Z,2.63
2023-10-15T18:14:38.270Z,2.30
2023-10-15T18:16:41.742Z,2.67
2023-10-15T18:18:44.924Z,2.20
2023-10-15T18:20:48.144Z,2.60
2023-10-15T18:22:51.491Z,2.10
2023-10-15T18:24:55.164Z,2.20
2023-10-15T18:26:58.238Z,2.40
2023-10-15T18:29:01.917Z,1.90
2023-10-15T18:31:08.287Z,2.20
2023-10-15T18:33:12.467Z,2.40
2023-10-15T18:35:18.622Z,2.40
2023-10-15T18:37:22.844Z,2.75
2023-10-15T18:39:26.438Z,2.08
2023-10-15T18:41:29.384Z,2.50
2023-10-15T18:43:36.289Z,3.60
2023-10-15T18:45:39.154Z,3.35
2023-10-15T18:47:42.799Z,3.05
2023-10-15T18:49:46.301Z,3.60
2023-10-15T18:51:49.486Z,2.97
2023-10-15T18:53:52.638Z,4.07
2023-10-15T18:55:55.609Z,4.10
2023-10-15T18:57:59.174Z,3.53
2023-10-15T19:00:04.880Z,3.50
2023-10-15T19:02:08.228Z,3.28
2023-10-15T19:04:11.530Z,3.35
2023-10-15T19:06:14.947Z,3.88
2023-10-15T19:08:17.973Z,3.83
2023-10-15T19:10:20.949Z,3.55
2023-10-15T19:12:24.226Z,3.80
2023-10-15T19:14:27.444Z,3.60
2023-10-15T19:16:31.364Z,3.83
2023-10-15T19:18:35.148Z,3.78
2023-10-15T19:20:42.069Z,3.70
2023-10-15T19:22:45.321Z,3.78
2023-10-15T19:24:48.537Z,3.97
2023-10-15T19:26:53.147Z,4.13
2023-10-15T19:28:56.514Z,3.30
2023-10-15T19:31:00.331Z,3.30
2023-10-15T19:33:03.776Z,3.20
2023-10-15T19:35:07.120Z,3.70
2023-10-15T19:37:11.989Z,3.10
2023-10-15T19:39:17.369Z,3.40
2023-10-15T19:41:20.827Z,2.92
2023-10-15T19:43:23.933Z,2.95
2023-10-15T19:45:27.953Z,2.83
2023-10-15T19:47:32.623Z,2.40
2023-10-15T19:49:36.334Z,3.25
2023-10-15T19:51:42.756Z,3.17
2023-10-15T19:53:45.928Z,3.03
2023-10-15T19:55:48.681Z,3.00
2023-10-15T19:57:55.431Z,3.42
2023-10-15T19:59:59.650Z,3.17
2023-10-15T20:02:03.165Z,2.50
2023-10-15T20:04:09.416Z,2.53
2023-10-15T20:06:13.048Z,2.78
2023-10-15T20:08:16.661Z,2.63
2023-10-15T20:10:19.470Z,3.78
2023-10-15T20:12:23.976Z,3.03
2023-10-15T20:14:30.559Z,3.42
2023-10-15T20:16:34.001Z,2.63
2023-10-15T20:18:37.382Z,3.10
2023-10-15T20:20:43.242Z,2.85
2023-10-15T20:22:47.311Z,2.65
2023-10-15T20:24:50.725Z,2.60
2023-10-15T20:26:53.539Z,2.83
2023-10-15T20:28:56.183Z,3.55
2023-10-15T20:30:59.862Z,3.40
2023-10-15T20:33:02.879Z,2.90
2023-10-15T20:35:06.347Z,2.10
2023-10-15T20:37:09.215Z,3.03
2023-10-15T20:39:19.804Z,2.88
2023-10-15T20:41:22.997Z,2.20
2023-10-15T20:43:25.841Z,3.10
2023-10-15T20:45:29.004Z,2.25
2023-10-15T20:47:31.784Z,2.50
2023-10-15T20:49:34.682Z,2.33
2023-10-15T20:51:37.899Z,2.55
2023-10-15T20:53:41.245Z,2.17
2023-10-15T20:55:44.423Z,2.50
2023-10-15T20:57:48.093Z,2.00
2023-10-15T20:59:50.962Z,2.40
2023-10-15T21:01:54.000Z,2.28
2023-10-15T21:03:57.150Z,2.25
2023-10-15T21:06:03.052Z,2.70
2023-10-15T21:08:08.212Z,2.70
2023-10-15T21:10:13.248Z,2.28
2023-10-15T21:12:17.081Z,2.35
2023-10-15T21:14:20.116Z,2.55
2023-10-15T21:16:23.151Z,2.55
2023-10-15T21:18:26.449Z,1.90
2023-10-15T21:20:29.154Z,2.65
2023-10-15T21:22:32.136Z,2.47
2023-10-15T21:24:36.731Z,2.50
2023-10-15T21:26:42.561Z,2.40
2023-10-15T21:28:45.260Z,2.22
2023-10-15T21:30:47.760Z,1.98
2023-10-15T21:32:51.070Z,2.50
2023-10-15T21:34:54.167Z,2.55
2023-10-15T21:37:00.881Z,2.28
2023-10-15T21:39:04.787Z,1.80
2023-10-15T21:41:07.870Z,2.80
2023-10-15T21:43:10.998Z,2.95
2023-10-15T21:45:14.650Z,1.85
2023-10-15T21:47:18.048Z,2.03
2023-10-15T21:49:21.287Z,2.30
2023-10-15T21:51:24.031Z,2.60
2023-10-15T21:53:26.490Z,2.70
2023-10-15T21:55:32.190Z,2.30
2023-10-15T21:57:35.136Z,2.45
2023-10-15T21:59:37.825Z,2.20
2023-10-15T22:01:40.863Z,2.00
2023-10-15T22:03:46.100Z,2.42
2023-10-15T22:05:49.745Z,2.42
2023-10-15T22:07:54.242Z,2.58
2023-10-15T22:09:56.858Z,2.67
2023-10-15T22:11:59.339Z,3.00
2023-10-15T22:14:02.115Z,3.20
2023-10-15T22:16:09.578Z,3.13
2023-10-15T22:18:16.795Z,2.97
2023-10-15T22:20:23.526Z,2.65
2023-10-15T22:22:26.733Z,2.95
2023-10-15T22:24:30.792Z,2.83
2023-10-15T22:26:33.182Z,2.72
2023-10-15T22:28:38.571Z,2.63
2023-10-15T22:30:43.005Z,2.28
2023-10-15T22:32:49.847Z,2.72
2023-10-15T22:34:52.606Z,2.25
2023-10-15T22:36:55.579Z,2.80
2023-10-15T22:38:58.204Z,2.30
2023-10-15T22:41:01.166Z,2.38
2023-10-15T22:43:04.197Z,2.30
2023-10-15T22:45:11.704Z,2.28
2023-10-15T22:47:15.623Z,2.20
2023-10-15T22:49:21.067Z,2.00
2023-10-15T22:51:24.050Z,2.20
2023-10-15T22:53:27.892Z,2.42
2023-10-15T22:55:31.543Z,2.78
2023-10-15T22:57:34.370Z,2.42
2023-10-15T22:59:37.907Z,2.28
2023-10-15T23:01:40.852Z,2.35
2023-10-15T23:03:43.761Z,2.10
2023-10-15T23:05:47.316Z,2.38
2023-10-15T23:07:51.044Z,1.70
2023-10-15T23:09:54.305Z,2.30
2023-10-15T23:12:02.398Z,2.38
2023-10-15T23:14:07.693Z,2.22
2023-10-15T23:16:16.647Z,2.00
2023-10-15T23:18:23.040Z,2.53
2023-10-15T23:20:36.141Z,2.40
2023-10-15T23:24:41.604Z,1.77
2023-10-15T23:26:45.352Z,2.22
2023-10-15T23:28:48.472Z,2.47
2023-10-15T23:30:53.526Z,2.10
2023-10-15T23:33:01.516Z,2.25
2023-10-15T23:35:04.848Z,2.30
2023-10-15T23:37:07.893Z,1.88
2023-10-15T23:39:17.959Z,2.10
2023-10-15T23:41:23.526Z,2.00
2023-10-15T23:43:27.631Z,1.98
2023-10-15T23:45:30.849Z,1.70
2023-10-15T23:47:35.089Z,2.15
2023-10-15T23:49:37.564Z,2.42
2023-10-15T23:51:42.247Z,2.03
2023-10-15T23:53:45.897Z,2.20
2023-10-15T23:55:50.218Z,2.15
2023-10-15T23:57:52.674Z,1.85
2023-10-15T23:59:55.445Z,2.00
